Aurora, Utah
Current Conditions -  °F | °C
As of 8:55 PM on Sunday 21 Dec 2014 (Local Time) from KDTA Reporting Station
Scattered Clouds Scattered Clouds  
Wind Chill: 37°   Ceiling: Unl
Heat Index: 41°   Visibility: 10mi
Dew Point: 37°   Wind: 6mph
Humidity: 85%   Direction: 190°S
Pressure: 30.01"   Gusts: NA
Location:  38.92°N, 111.93°W
Report Text: KDTA 220355Z AUTO 19005KT 10SM SCT095 05/03 A3001 RMK AO1 T00500026
Loading
Personal Weather Stations






























Interactive Weather Map New forecast layout! Learn more

10-Day Weather Forecast

Advertisements
Track Severe Weather on mobile